Airfield :
LOGIN :

Register | Disclaimer

   EN    FR    IT 

 










Legend :    VFR   Marginal VFR   IFR   Intensive IFR   Very Intensive IFR
Visi :
Ceiling :
>= 8 km
>= 3000ft
5 to 8 km
1000 to 3000 ft
1500m to 5 km
500 to 1000 ft
800 to 1500m
200 to 500 ft
< 800m
< 200 ft
Symbols :   Thunderstorms  Fog  Heavy snow  Heavy precipitations  Wind > 20 kt
SIGMETs :     Misc.  Thunderstorms  Icing  Turbulence  Mountain Waves  Volcanic Ashes







- Airport Elevation : 170 ft
- IATA code : KRP


EKKA - Karup

CURRENT METAR :
  • 211820Z AUTO 30008KT 6000 OVC004/// 15/15 Q1008

EXPIRED METARs :
  • 211754Z AUTO 30006KT 7000 OVC004/// 16/15 Q1008
  • 211728Z AUTO 31007KT 7000 OVC005/// 16/15 Q1008
  • 211720Z AUTO 31007KT 8000 OVC005/// 16/15 Q1008
  • 211650Z AUTO 32010KT 9999 BKN006/// 16/15 Q1008
  • 211620Z AUTO 32006KT 9999 BKN006/// 17/16 Q1007
  • 211550Z AUTO 32008KT 9999 -SHRA BKN006/// 17/16 Q1007

TAF TAF EKKA
Valid from the 21 at 18:00 until the 22 at 18:00 UTC


211721Z 2118/2218 29005KT 8000 BKN070
TEMPO 2118/2209 2000 -SHRA BR BKN004 SCT030CB
TEMPO 2209/2212 BKN012
No reported NOTAMs for that airfield.



MET'MAP, your aeronautical weather chart ! - Copyright ORBIFLY December 2007 - Disclaimer

ORBIFLY MET'MAP TEAM :

Programming & Development : Alexandra Zaïnal
Concept & Development : Baudouin d'Aumeries
Co-Development & Prog : Marc-Olivier Méhu
Technical & hardware support : Manuel Goepfert

Contact : metmap@orbifly.com




SOURCES & CREDITS :

   NOAA